createdAt,value
2019-03-22T00:00:04.741Z,5.30
2019-03-22T00:01:04.935Z,5.20
2019-03-22T00:02:07.554Z,5.20
2019-03-22T00:03:05.530Z,5.20
2019-03-22T00:04:08.251Z,5.20
2019-03-22T00:05:05.383Z,5.20
2019-03-22T00:06:05.594Z,5.20
2019-03-22T00:07:04.724Z,5.20
2019-03-22T00:08:04.827Z,5.10
2019-03-22T00:09:04.991Z,5.10
2019-03-22T00:10:05.308Z,5.10
2019-03-22T00:11:05.505Z,5.10
2019-03-22T00:12:05.774Z,5.00
2019-03-22T00:13:07.674Z,5.00
2019-03-22T00:14:04.757Z,5.00
2019-03-22T00:15:05.259Z,5.00
2019-03-22T00:16:05.492Z,5.00
2019-03-22T00:17:05.603Z,5.00
2019-03-22T00:18:07.330Z,4.90
2019-03-22T00:19:05.442Z,5.00
2019-03-22T00:20:08.252Z,4.90
2019-03-22T00:21:07.711Z,4.90
2019-03-22T00:22:07.216Z,4.90
2019-03-22T00:23:05.230Z,4.90
2019-03-22T00:24:05.415Z,4.90
2019-03-22T00:25:05.565Z,4.90
2019-03-22T00:26:07.277Z,4.90
2019-03-22T00:27:15.805Z,4.90
2019-03-22T00:28:07.368Z,4.90
2019-03-22T00:29:07.897Z,4.90
2019-03-22T00:30:07.473Z,4.80
2019-03-22T00:31:05.480Z,4.80
2019-03-22T00:32:05.644Z,4.80
2019-03-22T00:33:07.242Z,4.70
2019-03-22T00:34:05.243Z,4.70
2019-03-22T00:35:05.375Z,4.70
2019-03-22T00:36:05.628Z,4.70
2019-03-22T00:37:04.848Z,4.70
2019-03-22T00:38:05.058Z,4.70
2019-03-22T00:39:05.341Z,4.70
2019-03-22T00:40:07.983Z,4.70
2019-03-22T00:41:07.519Z,4.70
2019-03-22T00:42:08.087Z,4.60
2019-03-22T00:43:05.224Z,4.60
2019-03-22T00:44:05.595Z,4.60
2019-03-22T00:45:07.450Z,4.60
2019-03-22T00:46:05.486Z,4.60
2019-03-22T00:47:05.674Z,4.60
2019-03-22T00:48:04.752Z,4.60
2019-03-22T00:49:04.880Z,4.60
2019-03-22T00:50:05.013Z,4.60
2019-03-22T00:51:07.874Z,4.60
2019-03-22T00:52:04.904Z,4.60
2019-03-22T00:53:12.669Z,4.50
2019-03-22T00:54:04.718Z,4.50
2019-03-22T00:55:07.443Z,4.50
2019-03-22T00:56:10.542Z,4.50
2019-03-22T00:57:05.546Z,4.50
2019-03-22T00:58:04.768Z,4.50
2019-03-22T00:59:04.923Z,4.50
2019-03-22T01:00:05.152Z,4.50
2019-03-22T01:01:07.906Z,4.50
2019-03-22T01:02:05.115Z,4.50
2019-03-22T01:03:05.351Z,4.50
2019-03-22T01:04:05.506Z,4.50
2019-03-22T01:05:04.684Z,4.50
2019-03-22T01:06:04.831Z,4.40
2019-03-22T01:07:07.492Z,4.50
2019-03-22T01:08:07.996Z,4.40
2019-03-22T01:09:05.013Z,4.40
2019-03-22T01:10:07.893Z,4.50
2019-03-22T01:11:05.085Z,4.40
2019-03-22T01:12:07.794Z,4.50
2019-03-22T01:13:04.903Z,4.40
2019-03-22T01:14:05.378Z,4.40
2019-03-22T01:15:05.549Z,4.40
2019-03-22T01:16:08.319Z,4.30
2019-03-22T01:17:05.301Z,4.40
2019-03-22T01:18:05.436Z,4.40
2019-03-22T01:19:08.139Z,4.30
2019-03-22T01:20:05.205Z,4.30
2019-03-22T01:21:05.467Z,4.30
2019-03-22T01:22:04.657Z,4.30
2019-03-22T01:23:04.912Z,4.20
2019-03-22T01:24:07.607Z,4.20
2019-03-22T01:25:05.591Z,4.20
2019-03-22T01:26:04.685Z,4.20
2019-03-22T01:27:07.397Z,4.20
2019-03-22T01:28:05.537Z,4.20
2019-03-22T01:29:04.774Z,4.20
2019-03-22T01:30:04.926Z,4.20
2019-03-22T01:31:05.048Z,4.20
2019-03-22T01:32:05.183Z,4.20
2019-03-22T01:33:07.923Z,4.20
2019-03-22T01:34:07.506Z,4.20
2019-03-22T01:35:05.450Z,4.20
2019-03-22T01:36:05.601Z,4.20
2019-03-22T01:37:07.350Z,4.20
2019-03-22T01:38:05.473Z,4.20
2019-03-22T01:39:05.657Z,4.10
2019-03-22T01:40:12.418Z,4.10
2019-03-22T01:41:10.439Z,4.10
2019-03-22T01:42:05.423Z,4.10
2019-03-22T01:43:05.570Z,4.10
2019-03-22T01:44:07.344Z,4.10
2019-03-22T01:45:05.432Z,4.10
2019-03-22T01:46:05.554Z,4.10
2019-03-22T01:47:04.711Z,4.10
2019-03-22T01:48:07.800Z,4.20
2019-03-22T01:49:04.759Z,4.10
2019-03-22T01:50:04.843Z,4.10
2019-03-22T01:51:07.622Z,4.10
2019-03-22T01:52:08.290Z,4.10
2019-03-22T01:53:07.792Z,4.10
2019-03-22T01:54:07.411Z,4.10
2019-03-22T01:55:08.136Z,4.10
2019-03-22T01:56:07.767Z,4.10
2019-03-22T01:57:07.431Z,4.10
2019-03-22T01:58:05.625Z,4.10
2019-03-22T01:59:07.337Z,4.10
2019-03-22T02:00:07.929Z,4.00
2019-03-22T02:01:04.922Z,4.10
2019-03-22T02:02:05.150Z,4.10
2019-03-22T02:03:05.487Z,4.10
2019-03-22T02:04:04.735Z,4.10
2019-03-22T02:05:07.516Z,4.00
2019-03-22T02:06:05.563Z,4.00
2019-03-22T02:07:04.654Z,4.00
2019-03-22T02:08:07.873Z,4.00
2019-03-22T02:09:04.826Z,4.00
2019-03-22T02:10:04.882Z,4.00
2019-03-22T02:11:04.990Z,4.00
2019-03-22T02:12:07.667Z,4.00
2019-03-22T02:13:05.679Z,4.00
2019-03-22T02:14:04.894Z,4.00
2019-03-22T02:15:10.166Z,4.00
2019-03-22T02:16:07.714Z,4.00
2019-03-22T02:17:07.238Z,4.00
2019-03-22T02:18:05.231Z,3.90
2019-03-22T02:19:05.393Z,4.00
2019-03-22T02:20:05.521Z,3.90
2019-03-22T02:21:08.162Z,3.90
2019-03-22T02:22:07.656Z,3.90
2019-03-22T02:23:05.576Z,3.90
2019-03-22T02:24:07.190Z,3.90
2019-03-22T02:25:07.742Z,3.80
2019-03-22T02:26:07.259Z,3.90
2019-03-22T02:27:05.424Z,3.80
2019-03-22T02:28:05.657Z,3.90
2019-03-22T02:29:04.872Z,3.80
2019-03-22T02:30:05.115Z,3.80
2019-03-22T02:31:05.549Z,3.80
2019-03-22T02:32:04.724Z,3.80
2019-03-22T02:33:07.603Z,3.70
2019-03-22T02:34:10.676Z,3.70
2019-03-22T02:35:07.247Z,3.70
2019-03-22T02:36:05.425Z,3.70
2019-03-22T02:37:05.629Z,3.70
2019-03-22T02:38:04.832Z,3.70
2019-03-22T02:39:05.009Z,3.70
2019-03-22T02:40:07.813Z,3.80
2019-03-22T02:41:07.384Z,3.80
2019-03-22T02:42:05.498Z,3.70
2019-03-22T02:43:04.739Z,3.80
2019-03-22T02:44:07.378Z,3.70
2019-03-22T02:45:05.525Z,3.70
2019-03-22T02:46:04.677Z,3.80
2019-03-22T02:47:07.441Z,3.70
2019-03-22T02:48:07.985Z,3.70
2019-03-22T02:49:05.063Z,3.70
2019-03-22T02:50:17.075Z,3.70
2019-03-22T02:51:04.979Z,3.80
2019-03-22T02:52:05.164Z,3.70
2019-03-22T02:53:10.376Z,3.70
2019-03-22T02:54:05.334Z,3.70
2019-03-22T02:55:05.448Z,3.70
2019-03-22T02:56:05.585Z,3.70
2019-03-22T02:57:05.163Z,3.70
2019-03-22T02:58:19.612Z,3.70
2019-03-22T02:59:05.318Z,3.70
2019-03-22T03:00:08.130Z,3.70
2019-03-22T03:01:05.186Z,3.70
2019-03-22T03:02:05.334Z,3.70
2019-03-22T03:03:08.009Z,3.60
2019-03-22T03:04:04.895Z,3.60
2019-03-22T03:05:07.758Z,3.60
2019-03-22T03:06:04.901Z,3.60
2019-03-22T03:07:07.657Z,3.60
2019-03-22T03:08:07.263Z,3.60
2019-03-22T03:09:05.422Z,3.60
2019-03-22T03:10:08.125Z,3.60
2019-03-22T03:11:07.720Z,3.50
2019-03-22T03:12:04.856Z,3.60
2019-03-22T03:13:07.694Z,3.50
2019-03-22T03:14:04.680Z,3.50
2019-03-22T03:15:04.966Z,3.50
2019-03-22T03:16:05.142Z,3.60
2019-03-22T03:17:07.904Z,3.50
2019-03-22T03:18:04.892Z,3.50
2019-03-22T03:19:07.517Z,3.50
2019-03-22T03:20:05.663Z,3.50
2019-03-22T03:21:10.124Z,3.50
2019-03-22T03:22:05.226Z,3.50
2019-03-22T03:23:08.034Z,3.60
2019-03-22T03:24:05.156Z,3.50
2019-03-22T03:25:07.837Z,3.50
2019-03-22T03:26:04.814Z,3.50
2019-03-22T03:27:07.614Z,3.50
2019-03-22T03:28:04.753Z,3.50
2019-03-22T03:29:10.070Z,3.50
2019-03-22T03:30:05.206Z,3.50
2019-03-22T03:31:05.620Z,3.50
2019-03-22T03:32:05.003Z,3.50
2019-03-22T03:33:05.162Z,3.50
2019-03-22T03:34:07.901Z,3.50
2019-03-22T03:35:04.891Z,3.50
2019-03-22T03:36:04.997Z,3.50
2019-03-22T03:37:07.626Z,3.50
2019-03-22T03:38:05.669Z,3.40
2019-03-22T03:39:04.765Z,3.50
2019-03-22T03:40:05.108Z,3.50
2019-03-22T03:41:05.233Z,3.50
2019-03-22T03:42:08.217Z,3.40
2019-03-22T03:43:05.211Z,3.50
2019-03-22T03:44:04.744Z,3.50
2019-03-22T03:45:05.013Z,3.50
2019-03-22T03:46:05.186Z,3.40
2019-03-22T03:47:10.396Z,3.50
2019-03-22T03:48:04.708Z,3.40
2019-03-22T03:49:04.804Z,3.40
2019-03-22T03:50:07.491Z,3.40
2019-03-22T03:51:05.484Z,3.40
2019-03-22T03:52:08.210Z,3.40
2019-03-22T03:53:05.272Z,3.40
2019-03-22T03:54:05.709Z,3.40
2019-03-22T03:55:04.924Z,3.40
2019-03-22T03:56:05.082Z,3.40
2019-03-22T03:57:07.878Z,3.40
2019-03-22T03:58:05.076Z,3.40
2019-03-22T03:59:07.941Z,3.40
2019-03-22T04:00:04.962Z,3.40
2019-03-22T04:01:05.131Z,3.40
2019-03-22T04:02:05.289Z,3.40
2019-03-22T04:03:05.612Z,3.40
2019-03-22T04:04:05.081Z,3.40
2019-03-22T04:05:05.221Z,3.40
2019-03-22T04:06:10.692Z,3.30
2019-03-22T04:07:07.240Z,3.30
2019-03-22T04:08:05.282Z,3.30
2019-03-22T04:09:08.049Z,3.30
2019-03-22T04:10:05.234Z,3.30
2019-03-22T04:11:08.093Z,3.30
2019-03-22T04:12:07.696Z,3.30
2019-03-22T04:13:07.225Z,3.30
2019-03-22T04:14:05.246Z,3.30
2019-03-22T04:15:05.412Z,3.30
2019-03-22T04:16:05.553Z,3.30
2019-03-22T04:17:04.830Z,3.30
2019-03-22T04:18:05.364Z,3.30
2019-03-22T04:19:08.147Z,3.30
2019-03-22T04:20:05.204Z,3.30
2019-03-22T04:21:05.349Z,3.30
2019-03-22T04:22:05.415Z,3.30
2019-03-22T04:23:05.564Z,3.30
2019-03-22T04:24:04.694Z,3.30
2019-03-22T04:25:04.980Z,3.30
2019-03-22T04:26:07.771Z,3.30
2019-03-22T04:27:04.789Z,3.30
2019-03-22T04:28:04.932Z,3.30
2019-03-22T04:29:08.421Z,3.30
2019-03-22T04:30:05.045Z,3.30
2019-03-22T04:31:05.365Z,3.30
2019-03-22T04:32:08.078Z,3.20
2019-03-22T04:33:06.695Z,3.20
2019-03-22T04:34:05.241Z,3.20
2019-03-22T04:35:08.037Z,3.20
2019-03-22T04:36:05.079Z,3.20
2019-03-22T04:37:05.117Z,3.10
2019-03-22T04:38:05.308Z,3.10
2019-03-22T04:39:05.510Z,3.10
2019-03-22T04:40:13.181Z,3.10
2019-03-22T04:41:05.125Z,3.10
2019-03-22T04:42:05.292Z,3.10
2019-03-22T04:43:05.437Z,3.10
2019-03-22T04:44:04.899Z,3.10
2019-03-22T04:45:05.029Z,3.10
2019-03-22T04:46:07.740Z,3.10
2019-03-22T04:47:09.896Z,3.00
2019-03-22T04:48:07.464Z,3.10
2019-03-22T04:49:07.980Z,3.10
2019-03-22T04:50:07.594Z,3.10
2019-03-22T04:51:05.767Z,3.00
2019-03-22T04:52:07.557Z,3.10
2019-03-22T04:53:05.554Z,3.00
2019-03-22T04:54:04.781Z,3.00
2019-03-22T04:55:05.037Z,3.10
2019-03-22T04:56:07.876Z,3.10
2019-03-22T04:57:04.949Z,3.10
2019-03-22T04:58:07.714Z,3.10
2019-03-22T04:59:04.808Z,3.10
2019-03-22T05:00:05.038Z,3.10
2019-03-22T05:01:07.773Z,3.10
2019-03-22T05:02:04.863Z,3.10
2019-03-22T05:03:05.174Z,3.10
2019-03-22T05:04:07.891Z,3.20
2019-03-22T05:05:04.980Z,3.20
2019-03-22T05:06:05.302Z,3.20
2019-03-22T05:07:08.026Z,3.10
2019-03-22T05:08:05.027Z,3.20
2019-03-22T05:09:12.757Z,3.20
2019-03-22T05:10:04.828Z,3.20
2019-03-22T05:11:07.643Z,3.20
2019-03-22T05:12:05.738Z,3.10
2019-03-22T05:13:04.953Z,3.20
2019-03-22T05:14:05.067Z,3.20
2019-03-22T05:15:07.852Z,3.20
2019-03-22T05:16:05.094Z,3.10
2019-03-22T05:17:07.788Z,3.20
2019-03-22T05:18:07.339Z,3.20
2019-03-22T05:19:07.452Z,3.20
2019-03-22T05:20:05.546Z,3.20
2019-03-22T05:21:07.209Z,3.20
2019-03-22T05:22:07.721Z,3.20
2019-03-22T05:23:05.034Z,3.20
2019-03-22T05:24:07.779Z,3.20
2019-03-22T05:25:05.493Z,3.20
2019-03-22T05:26:08.395Z,3.20
2019-03-22T05:27:05.404Z,3.30
2019-03-22T05:28:04.881Z,3.20
2019-03-22T05:29:05.082Z,3.30
2019-03-22T05:30:05.231Z,3.30
2019-03-22T05:31:05.483Z,3.20
2019-03-22T05:32:05.750Z,3.20
2019-03-22T05:33:05.043Z,3.20
2019-03-22T05:34:05.295Z,3.20
2019-03-22T05:35:07.359Z,3.20
2019-03-22T05:36:05.629Z,3.20
2019-03-22T05:37:04.806Z,3.20
2019-03-22T05:38:05.118Z,3.20
2019-03-22T05:39:05.449Z,3.20
2019-03-22T05:40:07.245Z,3.20
2019-03-22T05:41:05.246Z,3.20
2019-03-22T05:42:05.382Z,3.20
2019-03-22T05:43:05.545Z,3.30
2019-03-22T05:44:07.285Z,3.30
2019-03-22T05:45:05.560Z,3.30
2019-03-22T05:46:04.858Z,3.40
2019-03-22T05:47:05.114Z,3.30
2019-03-22T05:48:05.537Z,3.30
2019-03-22T05:49:07.288Z,3.40
2019-03-22T05:50:05.516Z,3.40
2019-03-22T05:51:07.209Z,3.40
2019-03-22T05:52:05.335Z,3.40
2019-03-22T05:53:08.031Z,3.50
2019-03-22T05:54:07.694Z,3.50
2019-03-22T05:55:07.302Z,3.50
2019-03-22T05:56:05.404Z,3.50
2019-03-22T05:57:13.011Z,3.50
2019-03-22T05:58:05.145Z,3.60
2019-03-22T05:59:05.422Z,3.50
2019-03-22T06:00:10.958Z,3.50
2019-03-22T06:01:05.151Z,3.50
2019-03-22T06:02:08.683Z,3.60
2019-03-22T06:03:05.006Z,3.60
2019-03-22T06:04:05.553Z,3.60
2019-03-22T06:05:04.893Z,3.60
2019-03-22T06:06:05.084Z,3.70
2019-03-22T06:07:05.352Z,3.70
2019-03-22T06:08:08.056Z,3.80
2019-03-22T06:09:05.217Z,3.80
2019-03-22T06:10:08.093Z,3.90
2019-03-22T06:11:05.317Z,3.90
2019-03-22T06:12:08.075Z,4.00
2019-03-22T06:13:05.034Z,4.00
2019-03-22T06:14:05.456Z,4.10
2019-03-22T06:15:05.661Z,4.10
2019-03-22T06:16:07.523Z,4.20
2019-03-22T06:17:05.588Z,4.20
2019-03-22T06:18:04.717Z,4.30
2019-03-22T06:19:07.494Z,4.40
2019-03-22T06:20:05.534Z,4.40
2019-03-22T06:21:07.401Z,4.50
2019-03-22T06:22:05.596Z,4.50
2019-03-22T06:23:04.892Z,4.60
2019-03-22T06:24:07.603Z,4.80
2019-03-22T06:25:08.243Z,4.90
2019-03-22T06:26:08.502Z,5.00
2019-03-22T06:27:08.228Z,5.00
2019-03-22T06:28:05.332Z,5.00
2019-03-22T06:29:05.587Z,5.10
2019-03-22T06:30:04.826Z,5.20
2019-03-22T06:31:05.021Z,5.40
2019-03-22T06:32:04.974Z,5.50
2019-03-22T06:33:07.683Z,5.70
2019-03-22T06:34:04.794Z,5.70
2019-03-22T06:35:07.699Z,5.90
2019-03-22T06:36:04.724Z,5.90
2019-03-22T06:37:05.470Z,6.10
2019-03-22T06:38:09.881Z,6.30
2019-03-22T06:39:09.957Z,6.50
2019-03-22T06:40:05.101Z,6.50
2019-03-22T06:41:05.325Z,6.70
2019-03-22T06:42:05.512Z,6.80
2019-03-22T06:43:05.890Z,7.00
2019-03-22T06:44:07.793Z,7.40
2019-03-22T06:45:09.873Z,7.60
2019-03-22T06:46:04.872Z,7.60
2019-03-22T06:47:11.145Z,8.00
2019-03-22T06:48:07.893Z,8.10
2019-03-22T06:49:09.983Z,8.30
2019-03-22T06:50:04.919Z,8.30
2019-03-22T06:51:05.045Z,8.40
2019-03-22T06:52:05.242Z,8.60
2019-03-22T06:53:08.532Z,8.80
2019-03-22T06:54:13.545Z,8.90
2019-03-22T06:55:08.344Z,9.00
2019-03-22T06:56:05.555Z,9.00
2019-03-22T06:57:04.892Z,9.10
2019-03-22T06:58:07.574Z,9.30
2019-03-22T06:59:08.150Z,9.30
2019-03-22T07:00:06.655Z,9.40
2019-03-22T07:01:13.210Z,9.50
2019-03-22T07:02:07.834Z,9.60
2019-03-22T07:03:05.034Z,9.50
2019-03-22T07:04:07.772Z,9.60
2019-03-22T07:05:04.768Z,9.70
2019-03-22T07:06:09.999Z,9.70
2019-03-22T07:07:05.042Z,9.70
2019-03-22T07:08:05.279Z,9.70
2019-03-22T07:09:05.460Z,9.80
2019-03-22T07:10:05.686Z,9.80
2019-03-22T07:11:07.397Z,9.80
2019-03-22T07:12:05.516Z,9.90
2019-03-22T07:13:07.287Z,9.90
2019-03-22T07:14:05.488Z,9.90
2019-03-22T07:15:07.236Z,10.10
2019-03-22T07:16:07.937Z,10.10
2019-03-22T07:17:05.000Z,10.10
2019-03-22T07:18:07.779Z,10.20
2019-03-22T07:19:04.812Z,10.20
2019-03-22T07:20:07.482Z,10.30
2019-03-22T07:21:05.746Z,10.30
2019-03-22T07:22:07.474Z,10.40
2019-03-22T07:23:08.180Z,10.40
2019-03-22T07:24:05.242Z,10.40
2019-03-22T07:25:10.593Z,10.50
2019-03-22T07:26:08.108Z,10.60
2019-03-22T07:27:07.644Z,10.60
2019-03-22T07:28:05.694Z,10.60
2019-03-22T07:29:04.875Z,10.70
2019-03-22T07:30:17.838Z,10.70
2019-03-22T07:31:05.256Z,10.70
2019-03-22T07:32:08.011Z,10.90
2019-03-22T07:33:07.523Z,10.80
2019-03-22T07:34:13.134Z,10.80
2019-03-22T07:35:07.807Z,10.80
2019-03-22T07:36:04.867Z,10.80
2019-03-22T07:37:05.021Z,10.80
2019-03-22T07:38:05.379Z,10.80
2019-03-22T07:39:05.831Z,10.90
2019-03-22T07:40:05.175Z,10.90
2019-03-22T07:41:07.856Z,10.90
2019-03-22T07:42:04.846Z,10.90
2019-03-22T07:43:10.182Z,10.90
2019-03-22T07:44:04.786Z,11.00
2019-03-22T07:45:04.972Z,11.00
2019-03-22T07:46:07.845Z,11.10
2019-03-22T07:47:07.548Z,11.10
2019-03-22T07:48:05.562Z,11.10
2019-03-22T07:49:04.842Z,11.10
2019-03-22T07:50:05.151Z,11.20
2019-03-22T07:51:05.451Z,11.30
2019-03-22T07:52:08.119Z,11.30
2019-03-22T07:53:05.396Z,11.30
2019-03-22T07:54:08.090Z,11.40
2019-03-22T07:55:05.095Z,11.40
2019-03-22T07:56:05.266Z,11.40
2019-03-22T07:57:05.433Z,11.50
2019-03-22T07:58:05.808Z,11.50
2019-03-22T07:59:09.801Z,11.60
2019-03-22T08:00:05.099Z,11.60
2019-03-22T08:01:05.351Z,11.60
2019-03-22T08:02:10.682Z,11.60
2019-03-22T08:03:04.918Z,11.60
2019-03-22T08:04:07.678Z,11.70
2019-03-22T08:05:04.761Z,11.60
2019-03-22T08:06:05.258Z,11.70
2019-03-22T08:07:05.567Z,11.80
2019-03-22T08:08:10.083Z,11.80
2019-03-22T08:09:05.082Z,11.80
2019-03-22T08:10:07.913Z,11.90
2019-03-22T08:11:07.600Z,11.90
2019-03-22T08:12:05.765Z,11.90
2019-03-22T08:13:05.017Z,12.00
2019-03-22T08:14:07.672Z,12.10
2019-03-22T08:15:04.700Z,12.00
2019-03-22T08:16:04.950Z,12.10
2019-03-22T08:17:05.263Z,12.10
2019-03-22T08:18:05.439Z,12.20
2019-03-22T08:19:05.564Z,12.30
2019-03-22T08:20:07.275Z,12.40
2019-03-22T08:21:05.289Z,12.40
2019-03-22T08:22:08.111Z,12.50
2019-03-22T08:23:07.671Z,12.60
2019-03-22T08:24:07.220Z,12.70
2019-03-22T08:25:07.846Z,12.70
2019-03-22T08:26:05.030Z,12.70
2019-03-22T08:27:05.166Z,12.80
2019-03-22T08:28:07.847Z,12.90
2019-03-22T08:29:04.909Z,12.90
2019-03-22T08:30:05.158Z,12.90
2019-03-22T08:31:05.791Z,12.90
2019-03-22T08:32:07.689Z,13.00
2019-03-22T08:33:04.769Z,13.00
2019-03-22T08:34:04.921Z,13.00
2019-03-22T08:35:05.192Z,13.10
2019-03-22T08:36:08.019Z,13.10
2019-03-22T08:37:05.310Z,13.10
2019-03-22T08:38:10.747Z,13.10
2019-03-22T08:39:04.809Z,13.10
2019-03-22T08:40:05.097Z,13.10
2019-03-22T08:41:08.018Z,13.20
2019-03-22T08:42:05.204Z,13.20
2019-03-22T08:43:05.402Z,13.20
2019-03-22T08:44:07.546Z,13.20
2019-03-22T08:45:11.442Z,13.20
2019-03-22T08:46:05.621Z,13.20
2019-03-22T08:47:04.825Z,13.20
2019-03-22T08:48:05.007Z,13.30
2019-03-22T08:49:09.430Z,13.30
2019-03-22T08:50:07.364Z,13.30
2019-03-22T08:51:05.489Z,13.30
2019-03-22T08:52:08.238Z,13.30
2019-03-22T08:53:05.495Z,13.30
2019-03-22T08:54:08.298Z,13.30
2019-03-22T08:55:05.465Z,13.30
2019-03-22T08:56:05.563Z,13.40
2019-03-22T08:57:04.684Z,13.40
2019-03-22T08:58:07.478Z,13.40
2019-03-22T08:59:08.045Z,13.50
2019-03-22T09:00:05.039Z,13.50
2019-03-22T09:01:07.982Z,13.50
2019-03-22T09:02:08.124Z,13.50
2019-03-22T09:03:08.118Z,13.60
2019-03-22T09:04:07.689Z,13.60
2019-03-22T09:05:05.675Z,13.60
2019-03-22T09:06:07.948Z,13.60
2019-03-22T09:07:05.377Z,13.60
2019-03-22T09:08:08.291Z,13.70
2019-03-22T09:09:05.405Z,13.70
2019-03-22T09:10:08.248Z,13.80
2019-03-22T09:11:05.270Z,13.70
2019-03-22T09:12:05.578Z,13.80
2019-03-22T09:13:04.958Z,13.80
2019-03-22T09:14:07.725Z,13.80
2019-03-22T09:15:04.714Z,13.80
2019-03-22T09:16:07.457Z,13.90
2019-03-22T09:17:05.561Z,13.90
2019-03-22T09:18:04.813Z,13.90
2019-03-22T09:19:10.045Z,14.00
2019-03-22T09:20:07.619Z,13.90
2019-03-22T09:21:05.737Z,13.90
2019-03-22T09:22:09.938Z,13.90
2019-03-22T09:23:07.666Z,13.90
2019-03-22T09:24:05.625Z,13.90
2019-03-22T09:25:07.687Z,14.00
2019-03-22T09:26:05.035Z,14.00
2019-03-22T09:27:10.244Z,14.00
2019-03-22T09:28:10.252Z,14.00
2019-03-22T09:29:05.580Z,14.00
2019-03-22T09:30:07.466Z,14.00
2019-03-22T09:31:09.946Z,14.10
2019-03-22T09:32:05.618Z,14.10
2019-03-22T09:33:07.462Z,14.20
2019-03-22T09:34:10.759Z,14.20
2019-03-22T09:35:07.334Z,14.30
2019-03-22T09:36:10.424Z,14.40
2019-03-22T09:37:05.465Z,14.30
2019-03-22T09:38:12.568Z,14.40
2019-03-22T09:39:08.524Z,14.50
2019-03-22T09:40:08.266Z,14.50
2019-03-22T09:41:04.749Z,14.50
2019-03-22T09:42:05.047Z,14.60
2019-03-22T09:43:12.921Z,14.70
2019-03-22T09:44:07.504Z,14.80
2019-03-22T09:45:08.349Z,14.90
2019-03-22T09:46:08.132Z,14.90
2019-03-22T09:47:07.752Z,14.90
2019-03-22T09:48:06.068Z,14.90
2019-03-22T09:49:05.734Z,15.10
2019-03-22T09:50:10.138Z,15.20
2019-03-22T09:51:07.805Z,15.30
2019-03-22T09:52:07.348Z,15.30
2019-03-22T09:53:08.075Z,15.40
2019-03-22T09:54:05.078Z,15.40
2019-03-22T09:55:12.985Z,15.50
2019-03-22T09:56:07.973Z,15.50
2019-03-22T09:57:10.144Z,15.60
2019-03-22T09:58:07.830Z,15.60
2019-03-22T09:59:07.495Z,15.70
2019-03-22T10:00:05.671Z,15.70
2019-03-22T10:01:04.995Z,15.70
2019-03-22T10:02:05.300Z,15.80
2019-03-22T10:03:05.559Z,15.80
2019-03-22T10:04:07.286Z,15.90
2019-03-22T10:05:05.414Z,15.90
2019-03-22T10:06:05.646Z,15.90
2019-03-22T10:07:07.563Z,16.00
2019-03-22T10:08:10.734Z,15.90
2019-03-22T10:09:07.379Z,15.90
2019-03-22T10:10:08.070Z,16.00
2019-03-22T10:11:07.733Z,16.10
2019-03-22T10:12:04.758Z,16.00
2019-03-22T10:13:07.425Z,16.10
2019-03-22T10:14:05.476Z,16.10
2019-03-22T10:15:05.597Z,16.10
2019-03-22T10:16:07.518Z,16.20
2019-03-22T10:17:05.701Z,16.20
2019-03-22T10:18:07.624Z,16.20
2019-03-22T10:19:04.661Z,16.20
2019-03-22T10:20:07.439Z,16.30
2019-03-22T10:21:05.562Z,16.30
2019-03-22T10:22:09.865Z,16.30
2019-03-22T10:23:04.885Z,16.40
2019-03-22T10:24:10.465Z,16.40
2019-03-22T10:25:08.356Z,16.40
2019-03-22T10:26:05.576Z,16.40
2019-03-22T10:27:05.273Z,16.50
2019-03-22T10:28:05.633Z,16.50
2019-03-22T10:29:06.855Z,16.60
2019-03-22T10:30:05.455Z,16.60
2019-03-22T10:31:05.596Z,16.60
2019-03-22T10:32:04.783Z,16.70
2019-03-22T10:33:04.942Z,16.70
2019-03-22T10:34:07.716Z,16.80
2019-03-22T10:35:07.346Z,16.80
2019-03-22T10:36:05.453Z,16.80
2019-03-22T10:37:08.291Z,16.80
2019-03-22T10:38:14.355Z,16.90
2019-03-22T10:39:04.962Z,16.90
2019-03-22T10:40:05.197Z,16.90
2019-03-22T10:41:05.419Z,17.00
2019-03-22T10:42:08.156Z,16.90
2019-03-22T10:43:05.163Z,16.90
2019-03-22T10:44:07.556Z,16.80
2019-03-22T10:45:05.680Z,16.90
2019-03-22T10:46:07.659Z,16.90
2019-03-22T10:47:07.721Z,16.90
2019-03-22T10:48:04.828Z,16.90
2019-03-22T10:49:04.949Z,16.90
2019-03-22T10:50:05.192Z,16.90
2019-03-22T10:51:07.930Z,16.90
2019-03-22T10:52:05.084Z,16.90
2019-03-22T10:53:05.513Z,16.90
2019-03-22T10:54:08.348Z,16.80
2019-03-22T10:55:17.709Z,16.90
2019-03-22T10:56:07.825Z,16.90
2019-03-22T10:57:04.800Z,16.90
2019-03-22T10:58:04.944Z,16.90
2019-03-22T10:59:05.000Z,16.90
2019-03-22T11:00:07.840Z,16.90
2019-03-22T11:01:08.108Z,16.90
2019-03-22T11:02:07.741Z,17.00
2019-03-22T11:03:07.677Z,17.00
2019-03-22T11:05:04.810Z,17.00
2019-03-22T11:06:05.038Z,17.00
2019-03-22T11:07:05.208Z,17.00
2019-03-22T11:08:05.345Z,17.00
2019-03-22T11:09:10.708Z,17.00
2019-03-22T11:10:04.750Z,17.10
2019-03-22T11:11:07.658Z,17.10
2019-03-22T11:12:11.781Z,17.10
2019-03-22T11:13:04.803Z,17.10
2019-03-22T11:14:05.067Z,17.10
2019-03-22T11:15:08.005Z,17.10
2019-03-22T11:16:10.236Z,17.10
2019-03-22T11:17:05.388Z,17.10
2019-03-22T11:18:08.111Z,17.10
2019-03-22T11:19:07.672Z,17.10
2019-03-22T11:20:04.815Z,17.10
2019-03-22T11:21:05.654Z,17.10
2019-03-22T11:22:04.896Z,17.10
2019-03-22T11:23:05.029Z,17.20
2019-03-22T11:24:05.161Z,17.10
2019-03-22T11:25:07.897Z,17.20
2019-03-22T11:26:04.923Z,17.20
2019-03-22T11:27:07.783Z,17.20
2019-03-22T11:28:04.831Z,17.20
2019-03-22T11:29:07.528Z,17.30
2019-03-22T11:30:05.673Z,17.30
2019-03-22T11:31:10.006Z,17.30
2019-03-22T11:32:12.219Z,17.30
2019-03-22T11:33:04.998Z,17.40
2019-03-22T11:34:12.898Z,17.40
2019-03-22T11:35:04.968Z,17.40
2019-03-22T11:36:05.425Z,17.40
2019-03-22T11:37:08.230Z,17.50
2019-03-22T11:38:07.869Z,17.50
2019-03-22T11:39:15.100Z,17.50
2019-03-22T11:40:05.059Z,17.50
2019-03-22T11:41:07.832Z,17.50
2019-03-22T11:42:04.772Z,17.50
2019-03-22T11:43:08.768Z,17.50
2019-03-22T11:44:05.246Z,17.50
2019-03-22T11:45:05.551Z,17.50
2019-03-22T11:46:09.847Z,17.60
2019-03-22T11:47:04.987Z,17.60
2019-03-22T11:48:05.086Z,17.60
2019-03-22T11:49:05.275Z,17.60
2019-03-22T11:50:08.006Z,17.70
2019-03-22T11:51:05.089Z,17.70
2019-03-22T11:52:07.765Z,17.70
2019-03-22T11:53:07.265Z,17.80
2019-03-22T11:54:05.338Z,17.70
2019-03-22T11:55:05.548Z,17.70
2019-03-22T11:56:05.839Z,17.80
2019-03-22T11:57:07.764Z,17.80
2019-03-22T11:58:07.353Z,17.80
2019-03-22T11:59:10.568Z,17.80
2019-03-22T12:00:05.684Z,17.80
2019-03-22T12:01:04.931Z,17.80
2019-03-22T12:02:05.152Z,17.80
2019-03-22T12:03:05.439Z,17.80
2019-03-22T12:04:04.927Z,17.80
2019-03-22T12:05:07.670Z,17.70
2019-03-22T12:06:04.740Z,17.70
2019-03-22T12:07:04.837Z,17.80
2019-03-22T12:08:04.957Z,17.80
2019-03-22T12:09:07.628Z,17.80
2019-03-22T12:10:08.104Z,17.80
2019-03-22T12:11:05.224Z,17.70
2019-03-22T12:12:15.546Z,17.70
2019-03-22T12:13:05.625Z,17.70
2019-03-22T12:14:07.251Z,17.80
2019-03-22T12:15:08.256Z,17.80
2019-03-22T12:16:05.386Z,17.70
2019-03-22T12:17:05.539Z,17.80
2019-03-22T12:18:07.225Z,17.80
2019-03-22T12:19:05.198Z,17.80
2019-03-22T12:20:05.434Z,17.80
2019-03-22T12:21:05.560Z,17.80
2019-03-22T12:22:04.645Z,17.90
2019-03-22T12:23:04.833Z,17.90
2019-03-22T12:24:05.160Z,17.90
2019-03-22T12:25:05.448Z,18.00
2019-03-22T12:26:06.473Z,18.00
2019-03-22T12:27:07.269Z,18.00
2019-03-22T12:28:07.799Z,18.10
2019-03-22T12:29:04.921Z,18.10
2019-03-22T12:30:07.608Z,18.10
2019-03-22T12:31:08.215Z,18.10
2019-03-22T12:32:10.285Z,18.10
2019-03-22T12:33:05.282Z,18.10
2019-03-22T12:34:08.065Z,18.10
2019-03-22T12:35:05.205Z,18.00
2019-03-22T12:36:07.952Z,18.00
2019-03-22T12:37:05.030Z,18.00
2019-03-22T12:38:05.270Z,18.00
2019-03-22T12:39:05.460Z,18.10
2019-03-22T12:40:08.186Z,18.10
2019-03-22T12:41:07.765Z,18.10
2019-03-22T12:42:07.672Z,18.10
2019-03-22T12:43:07.396Z,18.20
2019-03-22T12:44:05.494Z,18.20
2019-03-22T12:45:05.707Z,18.20
2019-03-22T12:46:04.779Z,18.20
2019-03-22T12:47:04.941Z,18.20
2019-03-22T12:48:05.146Z,18.20
2019-03-22T12:49:05.243Z,18.20
2019-03-22T12:50:05.329Z,18.20
2019-03-22T12:51:05.414Z,18.20
2019-03-22T12:52:08.101Z,18.10
2019-03-22T12:53:05.093Z,18.10
2019-03-22T12:54:05.618Z,18.20
2019-03-22T12:55:04.766Z,18.20
2019-03-22T12:56:04.969Z,18.20
2019-03-22T12:57:05.112Z,18.20
2019-03-22T12:58:05.292Z,18.10
2019-03-22T12:59:05.501Z,18.10
2019-03-22T13:00:05.646Z,18.10
2019-03-22T13:01:07.392Z,18.10
2019-03-22T13:02:05.421Z,18.10
2019-03-22T13:03:05.620Z,18.10
2019-03-22T13:04:07.354Z,18.00
2019-03-22T13:05:05.355Z,18.00
2019-03-22T13:06:05.468Z,18.00
2019-03-22T13:07:08.189Z,18.10